Terminal Aerodrome Forecast
Issued by NWS

Home | Current Version | Previous Version | Text Only | Print | Product List | Glossary On
Versions: 1 2 3 4 5 6 7 8 9 10 11 12 13 14 15
000
FTUS46 KPDT 291128
TAFDLS
TAF
KDLS 291128Z 2912/3012 VRB06KT P6SM VCSH BKN120
     FM291400 30011KT P6SM -SHRA BKN070 OVC090
     FM292000 31015G25KT P6SM BKN080
     FM300400 30010KT P6SM BKN070
     FM300800 29006KT P6SM -SHRA BKN050 OVC070=

USA.gov is the U.S. government's official web portal to all federal, state and local government web resources and services.